createdAt,value
2022-08-26T00:01:03.537Z,99254.84
2022-08-26T00:03:31.381Z,99247.22
2022-08-26T00:05:59.083Z,99251.53
2022-08-26T00:08:26.388Z,99247.22
2022-08-26T00:10:54.124Z,99257.38
2022-08-26T00:13:21.425Z,99252.09
2022-08-26T00:15:50.319Z,99252.44
2022-08-26T00:18:22.175Z,99245.16
2022-08-26T00:20:50.293Z,99251.94
2022-08-26T00:23:17.981Z,99248.13
2022-08-26T00:25:45.309Z,99244.19
2022-08-26T00:28:12.765Z,99249.81
2022-08-26T00:30:41.485Z,99250.16
2022-08-26T00:33:09.665Z,99250.03
2022-08-26T00:35:38.130Z,99244.28
2022-08-26T00:38:11.524Z,99248.34
2022-08-26T00:40:43.047Z,99241.41
2022-08-26T00:43:10.753Z,99242.84
2022-08-26T00:45:40.494Z,99237.56
2022-08-26T00:48:08.403Z,99235.53
2022-08-26T00:50:40.871Z,99235.91
2022-08-26T00:53:24.122Z,99236.72
2022-08-26T00:56:05.734Z,99235.72
2022-08-26T00:58:34.100Z,99229.50
2022-08-26T01:01:01.883Z,99227.31
2022-08-26T01:03:29.548Z,99225.09
2022-08-26T01:05:57.230Z,99234.22
2022-08-26T01:08:25.136Z,99226.81
2022-08-26T01:10:52.440Z,99228.63
2022-08-26T01:13:23.316Z,99229.44
2022-08-26T01:15:52.447Z,99224.72
2022-08-26T01:18:20.609Z,99233.31
2022-08-26T01:20:50.839Z,99225.66
2022-08-26T01:23:18.610Z,99230.06
2022-08-26T01:25:51.790Z,99229.63
2022-08-26T01:28:21.781Z,99225.38
2022-08-26T01:30:49.266Z,99228.56
2022-08-26T01:33:17.860Z,99221.38
2022-08-26T01:35:46.382Z,99228.31
2022-08-26T01:38:16.243Z,99220.25
2022-08-26T01:40:44.138Z,99229.78
2022-08-26T01:43:14.773Z,99222.47
2022-08-26T01:45:42.568Z,99228.09
2022-08-26T01:48:11.699Z,99217.84
2022-08-26T01:50:39.295Z,99216.34
2022-08-26T01:53:08.019Z,99222.16
2022-08-26T01:55:37.181Z,99226.66
2022-08-26T01:58:17.609Z,99221.94
2022-08-26T02:00:46.262Z,99225.81
2022-08-26T02:03:17.133Z,99218.25
2022-08-26T02:05:44.861Z,99221.53
2022-08-26T02:08:22.995Z,99220.88
2022-08-26T02:10:54.672Z,99225.81
2022-08-26T02:13:22.677Z,99215.53
2022-08-26T02:15:52.310Z,99215.16
2022-08-26T02:18:20.126Z,99215.06
2022-08-26T02:20:47.856Z,99219.09
2022-08-26T02:23:18.985Z,99215.47
2022-08-26T02:25:54.105Z,99216.84
2022-08-26T02:28:21.508Z,99215.00
2022-08-26T02:30:55.641Z,99222.69
2022-08-26T02:33:23.025Z,99220.72
2022-08-26T02:35:50.251Z,99216.19
2022-08-26T02:38:18.359Z,99219.66
2022-08-26T02:40:45.615Z,99217.13
2022-08-26T02:43:15.453Z,99216.84
2022-08-26T02:45:43.052Z,99217.88
2022-08-26T02:48:11.830Z,99217.75
2022-08-26T02:50:39.679Z,99214.22
2022-08-26T02:53:07.772Z,99218.03
2022-08-26T02:55:35.440Z,99212.09
2022-08-26T02:58:02.961Z,99215.47
2022-08-26T03:00:31.424Z,99214.28
2022-08-26T03:02:59.013Z,99217.19
2022-08-26T03:05:26.375Z,99217.59
2022-08-26T03:07:53.987Z,99210.75
2022-08-26T03:10:21.437Z,99206.56
2022-08-26T03:12:48.826Z,99206.81
2022-08-26T03:15:18.140Z,99207.87
2022-08-26T03:17:46.325Z,99203.41
2022-08-26T03:20:13.789Z,99198.56
2022-08-26T03:22:44.907Z,99202.22
2022-08-26T03:25:14.032Z,99198.66
2022-08-26T03:27:42.976Z,99202.41
2022-08-26T03:30:29.633Z,99197.50
2022-08-26T03:32:57.207Z,99201.28
2022-08-26T03:35:25.771Z,99193.09
2022-08-26T03:37:53.595Z,99198.78
2022-08-26T03:40:21.024Z,99196.34
2022-08-26T03:42:50.044Z,99201.31
2022-08-26T03:45:17.983Z,99195.28
2022-08-26T03:47:45.933Z,99203.38
2022-08-26T03:50:16.607Z,99194.38
2022-08-26T03:52:51.557Z,99197.97
2022-08-26T03:55:19.108Z,99205.03
2022-08-26T03:57:51.258Z,99194.75
2022-08-26T04:00:19.096Z,99196.75
2022-08-26T04:02:48.690Z,99195.00
2022-08-26T04:05:17.524Z,99198.28
2022-08-26T04:07:45.329Z,99189.59
2022-08-26T04:10:13.985Z,99184.94
2022-08-26T04:12:42.573Z,99191.44
2022-08-26T04:15:11.483Z,99198.19
2022-08-26T04:17:39.103Z,99195.22
2022-08-26T04:20:06.962Z,99203.41
2022-08-26T04:22:34.191Z,99198.91
2022-08-26T04:25:02.391Z,99205.84
2022-08-26T04:27:29.683Z,99198.72
2022-08-26T04:29:57.334Z,99198.72
2022-08-26T04:32:25.306Z,99196.56
2022-08-26T04:34:52.550Z,99207.75
2022-08-26T04:37:20.207Z,99204.19
2022-08-26T04:39:52.790Z,99202.28
2022-08-26T04:42:25.841Z,99199.16
2022-08-26T04:44:53.741Z,99197.38
2022-08-26T04:47:21.108Z,99202.41
2022-08-26T04:49:48.374Z,99201.28
2022-08-26T04:52:15.979Z,99206.41
2022-08-26T04:54:43.388Z,99204.78
2022-08-26T04:57:11.143Z,99201.53
2022-08-26T04:59:39.529Z,99206.63
2022-08-26T05:02:07.291Z,99210.41
2022-08-26T05:04:34.623Z,99209.13
2022-08-26T05:07:02.687Z,99216.59
2022-08-26T05:09:30.389Z,99204.91
2022-08-26T05:11:57.840Z,99205.22
2022-08-26T05:14:26.624Z,99208.72
2022-08-26T05:16:54.015Z,99208.13
2022-08-26T05:19:21.300Z,99211.66
2022-08-26T05:21:49.359Z,99209.78
2022-08-26T05:24:17.160Z,99203.75
2022-08-26T05:26:45.270Z,99205.84
2022-08-26T05:29:12.999Z,99211.22
2022-08-26T05:31:40.332Z,99208.59
2022-08-26T05:34:08.400Z,99210.16
2022-08-26T05:36:36.956Z,99205.91
2022-08-26T05:39:05.193Z,99212.25
2022-08-26T05:41:34.259Z,99205.56
2022-08-26T05:44:05.918Z,99206.28
2022-08-26T05:46:33.336Z,99208.63
2022-08-26T05:49:01.770Z,99211.34
2022-08-26T05:51:30.554Z,99213.97
2022-08-26T05:53:58.716Z,99207.28
2022-08-26T05:56:27.776Z,99211.56
2022-08-26T05:58:56.027Z,99208.69
2022-08-26T06:01:26.490Z,99212.22
2022-08-26T06:03:56.315Z,99210.31
2022-08-26T06:06:27.291Z,99210.53
2022-08-26T06:08:59.099Z,99211.31
2022-08-26T06:11:26.912Z,99220.66
2022-08-26T06:13:54.631Z,99218.47
2022-08-26T06:16:23.379Z,99225.66
2022-08-26T06:18:51.753Z,99227.25
2022-08-26T06:21:18.928Z,99224.94
2022-08-26T06:24:06.142Z,99226.34
2022-08-26T06:26:33.686Z,99222.47
2022-08-26T06:29:01.688Z,99224.66
2022-08-26T06:31:34.932Z,99225.22
2022-08-26T06:34:05.251Z,99227.75
2022-08-26T06:36:37.877Z,99227.16
2022-08-26T06:39:06.294Z,99226.78
2022-08-26T06:41:34.520Z,99228.06
2022-08-26T06:44:02.517Z,99225.16
2022-08-26T06:46:30.124Z,99234.75
2022-08-26T06:49:00.651Z,99226.78
2022-08-26T06:51:29.023Z,99226.75
2022-08-26T06:53:59.216Z,99228.00
2022-08-26T06:56:29.694Z,99223.47
2022-08-26T06:58:57.328Z,99220.62
2022-08-26T07:01:26.227Z,99220.47
2022-08-26T07:03:54.981Z,99227.81
2022-08-26T07:06:25.325Z,99228.72
2022-08-26T07:08:53.518Z,99224.44
2022-08-26T07:11:21.192Z,99227.50
2022-08-26T07:13:50.185Z,99223.16
2022-08-26T07:16:19.337Z,99217.13
2022-08-26T07:18:46.903Z,99217.47
2022-08-26T07:21:15.454Z,99219.44
2022-08-26T07:23:42.810Z,99224.78
2022-08-26T07:26:16.329Z,99226.75
2022-08-26T07:28:44.544Z,99223.22
2022-08-26T07:31:12.879Z,99221.47
2022-08-26T07:33:40.689Z,99224.97
2022-08-26T07:36:09.086Z,99215.47
2022-08-26T07:38:36.605Z,99215.84
2022-08-26T07:41:03.935Z,99217.22
2022-08-26T07:43:31.556Z,99218.94
2022-08-26T07:45:58.857Z,99221.38
2022-08-26T07:48:26.124Z,99219.94
2022-08-26T07:50:53.836Z,99217.81
2022-08-26T07:53:21.489Z,99219.22
2022-08-26T07:55:51.648Z,99216.97
2022-08-26T07:58:19.549Z,99219.53
2022-08-26T08:00:47.451Z,99218.84
2022-08-26T08:03:15.145Z,99223.59
2022-08-26T08:05:42.488Z,99218.84
2022-08-26T08:08:26.365Z,99215.44
2022-08-26T08:10:55.773Z,99212.16
2022-08-26T08:13:23.503Z,99212.97
2022-08-26T08:15:51.039Z,99209.97
2022-08-26T08:18:20.405Z,99212.38
2022-08-26T08:21:04.732Z,99218.94
2022-08-26T08:23:35.600Z,99211.13
2022-08-26T08:26:07.281Z,99209.00
2022-08-26T08:28:36.730Z,99205.09
2022-08-26T08:31:04.591Z,99209.78
2022-08-26T08:33:33.680Z,99205.47
2022-08-26T08:36:01.523Z,99206.88
2022-08-26T08:38:29.350Z,99201.94
2022-08-26T08:40:56.634Z,99207.94
2022-08-26T08:43:24.174Z,99208.44
2022-08-26T08:45:55.014Z,99210.25
2022-08-26T08:48:27.906Z,99205.22
2022-08-26T08:50:56.630Z,99208.22
2022-08-26T08:53:24.696Z,99205.06
2022-08-26T08:56:30.880Z,99202.50
2022-08-26T08:59:38.515Z,99203.91
2022-08-26T09:02:10.036Z,99198.06
2022-08-26T09:04:37.986Z,99192.63
2022-08-26T09:07:06.900Z,99186.84
2022-08-26T09:09:35.245Z,99191.06
2022-08-26T09:12:03.251Z,99188.50
2022-08-26T09:14:31.567Z,99184.75
2022-08-26T09:16:58.897Z,99185.81
2022-08-26T09:19:26.595Z,99180.38
2022-08-26T09:21:57.553Z,99176.06
2022-08-26T09:24:28.631Z,99178.72
2022-08-26T09:26:58.940Z,99171.53
2022-08-26T09:29:27.466Z,99171.63
2022-08-26T09:32:22.149Z,99169.72
2022-08-26T09:34:57.620Z,99163.19
2022-08-26T09:37:43.486Z,99170.81
2022-08-26T09:40:19.266Z,99157.56
2022-08-26T09:42:48.209Z,99163.37
2022-08-26T09:45:16.989Z,99158.41
2022-08-26T09:47:47.310Z,99167.38
2022-08-26T09:50:28.854Z,99159.81
2022-08-26T09:53:13.137Z,99158.97
2022-08-26T09:55:42.148Z,99154.00
2022-08-26T09:58:12.764Z,99159.25
2022-08-26T10:00:41.975Z,99158.16
2022-08-26T10:03:11.093Z,99160.66
2022-08-26T10:05:43.806Z,99154.50
2022-08-26T10:08:21.029Z,99150.66
2022-08-26T10:10:53.319Z,99150.66
2022-08-26T10:13:21.017Z,99149.81
2022-08-26T10:16:05.875Z,99148.97
2022-08-26T10:18:34.794Z,99144.72
2022-08-26T10:21:07.804Z,99146.59
2022-08-26T10:26:22.290Z,99138.03
2022-08-26T10:29:01.338Z,99137.97
2022-08-26T10:31:40.160Z,99140.66
2022-08-26T10:34:08.807Z,99129.50
2022-08-26T10:37:10.783Z,99128.34
2022-08-26T10:39:36.956Z,99128.09
2022-08-26T10:42:05.554Z,99130.75
2022-08-26T10:44:33.408Z,99130.22
2022-08-26T10:47:02.266Z,99123.13
2022-08-26T10:49:29.960Z,99119.00
2022-08-26T10:52:00.887Z,99119.69
2022-08-26T10:54:37.964Z,99116.25
2022-08-26T10:57:15.398Z,99119.81
2022-08-26T10:59:48.794Z,99114.66
2022-08-26T11:02:24.989Z,99118.31
2022-08-26T11:05:01.006Z,99113.31
2022-08-26T11:07:35.293Z,99114.25
2022-08-26T11:10:02.900Z,99111.56
2022-08-26T11:12:36.415Z,99110.88
2022-08-26T11:15:24.731Z,99105.22
2022-08-26T11:17:52.179Z,99101.09
2022-08-26T11:20:22.525Z,99100.94
2022-08-26T11:22:51.561Z,99103.81
2022-08-26T11:25:19.341Z,99103.97
2022-08-26T11:27:52.927Z,99093.50
2022-08-26T11:30:21.134Z,99101.47
2022-08-26T11:32:52.873Z,99094.53
2022-08-26T11:35:20.517Z,99091.16
2022-08-26T11:37:47.960Z,99085.38
2022-08-26T11:40:17.983Z,99083.31
2022-08-26T11:42:49.653Z,99082.28
2022-08-26T11:45:37.680Z,99079.66
2022-08-26T11:48:21.336Z,99075.75
2022-08-26T11:50:55.437Z,99070.56
2022-08-26T11:53:23.185Z,99071.81
2022-08-26T11:55:51.011Z,99071.13
2022-08-26T11:58:21.179Z,99070.72
2022-08-26T12:00:49.785Z,99072.50
2022-08-26T12:03:18.537Z,99062.75
2022-08-26T12:05:46.752Z,99067.81
2022-08-26T12:08:16.740Z,99055.09
2022-08-26T12:10:44.544Z,99055.13
2022-08-26T12:13:25.087Z,99050.97
2022-08-26T12:15:55.865Z,99051.31
2022-08-26T12:18:28.769Z,99046.66
2022-08-26T12:21:01.284Z,99040.87
2022-08-26T12:23:35.150Z,99039.31
2022-08-26T12:26:10.458Z,99036.69
2022-08-26T12:28:55.044Z,99033.94
2022-08-26T12:31:27.615Z,99034.53
2022-08-26T12:33:55.417Z,99028.50
2022-08-26T12:36:24.605Z,99023.72
2022-08-26T12:38:53.750Z,99023.22
2022-08-26T12:41:44.538Z,99019.97
2022-08-26T12:44:30.726Z,99019.41
2022-08-26T12:47:02.248Z,99008.88
2022-08-26T12:49:29.602Z,99018.31
2022-08-26T12:51:56.945Z,99017.03
2022-08-26T12:54:44.527Z,99007.31
2022-08-26T12:57:12.587Z,99009.00
2022-08-26T12:59:40.258Z,99016.44
2022-08-26T13:02:07.732Z,99004.78
2022-08-26T13:04:38.256Z,98997.97
2022-08-26T13:07:32.036Z,98995.63
2022-08-26T13:09:59.798Z,98993.94
2022-08-26T13:12:27.442Z,98990.50
2022-08-26T13:14:54.940Z,98992.03
2022-08-26T13:17:22.235Z,98982.13
2022-08-26T13:19:49.794Z,98980.44
2022-08-26T13:22:19.402Z,98977.38
2022-08-26T13:24:46.718Z,98972.41
2022-08-26T13:27:14.686Z,98966.31
2022-08-26T13:29:42.062Z,98969.34
2022-08-26T13:32:09.670Z,98960.59
2022-08-26T13:34:38.355Z,98966.75
2022-08-26T13:37:06.026Z,98966.47
2022-08-26T13:39:33.397Z,98965.63
2022-08-26T13:42:01.002Z,98961.59
2022-08-26T13:44:28.300Z,98952.09
2022-08-26T13:46:55.738Z,98964.81
2022-08-26T13:49:23.446Z,98954.34
2022-08-26T13:51:50.719Z,98956.63
2022-08-26T13:54:18.038Z,98957.59
2022-08-26T13:56:46.015Z,98955.28
2022-08-26T13:59:13.327Z,98953.47
2022-08-26T14:01:40.618Z,98952.47
2022-08-26T14:04:08.730Z,98945.38
2022-08-26T14:06:36.302Z,98945.09
2022-08-26T14:09:04.197Z,98941.94
2022-08-26T14:11:41.184Z,98933.37
2022-08-26T14:14:19.199Z,98935.34
2022-08-26T14:16:58.755Z,98936.53
2022-08-26T14:19:30.865Z,98941.28
2022-08-26T14:22:00.806Z,98949.00
2022-08-26T14:24:28.963Z,98951.38
2022-08-26T14:26:56.479Z,98942.78
2022-08-26T14:29:24.198Z,98942.19
2022-08-26T14:31:51.477Z,98945.22
2022-08-26T14:34:18.813Z,98951.75
2022-08-26T14:36:46.400Z,98950.72
2022-08-26T14:39:14.335Z,98956.63
2022-08-26T14:41:53.743Z,98951.94
2022-08-26T14:44:24.036Z,98957.87
2022-08-26T14:46:52.946Z,98950.56
2022-08-26T14:49:20.883Z,98942.19
2022-08-26T14:51:48.428Z,98950.31
2022-08-26T14:54:16.464Z,98945.28
2022-08-26T14:56:54.908Z,98943.84
2022-08-26T14:59:26.728Z,98934.41
2022-08-26T15:01:54.770Z,98943.75
2022-08-26T15:04:22.727Z,98938.03
2022-08-26T15:06:50.733Z,98932.00
2022-08-26T15:09:18.122Z,98937.69
2022-08-26T15:11:46.398Z,98926.94
2022-08-26T15:14:19.364Z,98928.91
2022-08-26T15:16:47.982Z,98928.25
2022-08-26T15:19:16.052Z,98923.59
2022-08-26T15:21:45.410Z,98935.09
2022-08-26T15:24:13.314Z,98931.44
2022-08-26T15:26:40.895Z,98928.75
2022-08-26T15:29:08.289Z,98921.69
2022-08-26T15:31:36.643Z,98917.00
2022-08-26T15:34:05.888Z,98917.88
2022-08-26T15:36:33.458Z,98912.44
2022-08-26T15:39:01.308Z,98906.22
2022-08-26T15:41:29.522Z,98915.00
2022-08-26T15:43:57.388Z,98918.31
2022-08-26T15:46:24.749Z,98906.50
2022-08-26T15:48:52.521Z,98912.47
2022-08-26T15:51:21.454Z,98909.72
2022-08-26T15:53:50.695Z,98908.47
2022-08-26T15:56:18.784Z,98907.28
2022-08-26T15:58:46.883Z,98910.44
2022-08-26T16:01:15.205Z,98901.09
2022-08-26T16:03:55.723Z,98900.28
2022-08-26T16:06:24.541Z,98893.38
2022-08-26T16:08:51.903Z,98895.87
2022-08-26T16:11:19.981Z,98902.00
2022-08-26T16:13:47.843Z,98896.81
2022-08-26T16:16:15.380Z,98887.97
2022-08-26T16:18:43.273Z,98887.75
2022-08-26T16:21:14.920Z,98885.50
2022-08-26T16:23:43.271Z,98886.38
2022-08-26T16:26:13.858Z,98884.28
2022-08-26T16:28:41.361Z,98890.16
2022-08-26T16:31:11.534Z,98886.56
2022-08-26T16:33:38.967Z,98890.19
2022-08-26T16:36:06.682Z,98882.69
2022-08-26T16:38:34.777Z,98888.25
2022-08-26T16:41:02.246Z,98891.09
2022-08-26T16:43:29.616Z,98890.38
2022-08-26T16:45:57.450Z,98894.38
2022-08-26T16:48:25.246Z,98896.41
2022-08-26T16:50:54.429Z,98900.34
2022-08-26T16:53:22.150Z,98902.03
2022-08-26T16:55:50.226Z,98905.66
2022-08-26T16:58:17.716Z,98903.69
2022-08-26T17:00:45.535Z,98898.38
2022-08-26T17:03:13.089Z,98900.03
2022-08-26T17:05:40.504Z,98901.69
2022-08-26T17:08:08.330Z,98893.94
2022-08-26T17:10:35.842Z,98900.09
2022-08-26T17:13:03.294Z,98900.41
2022-08-26T17:15:30.949Z,98892.12
2022-08-26T17:17:58.362Z,98898.88
2022-08-26T17:20:25.942Z,98897.03
2022-08-26T17:22:54.390Z,98899.84
2022-08-26T17:25:26.159Z,98900.53
2022-08-26T17:27:53.764Z,98899.44
2022-08-26T17:30:21.241Z,98907.78
2022-08-26T17:32:48.779Z,98906.16
2022-08-26T17:35:16.997Z,98903.13
2022-08-26T17:37:44.497Z,98908.97
2022-08-26T17:40:13.136Z,98909.53
2022-08-26T17:42:40.717Z,98902.09
2022-08-26T17:45:08.688Z,98905.69
2022-08-26T17:47:36.051Z,98903.50
2022-08-26T17:50:04.605Z,98909.59
2022-08-26T17:52:32.002Z,98904.84
2022-08-26T17:54:59.401Z,98907.38
2022-08-26T17:57:27.143Z,98906.19
2022-08-26T17:59:54.460Z,98905.97
2022-08-26T18:02:21.865Z,98912.63
2022-08-26T18:04:49.443Z,98915.38
2022-08-26T18:07:16.786Z,98907.91
2022-08-26T18:09:44.330Z,98914.81
2022-08-26T18:12:11.998Z,98913.41
2022-08-26T18:14:39.243Z,98911.78
2022-08-26T18:17:06.550Z,98911.78
2022-08-26T18:19:34.155Z,98914.19
2022-08-26T18:22:01.493Z,98914.22
2022-08-26T18:24:30.458Z,98918.34
2022-08-26T18:26:58.264Z,98910.22
2022-08-26T18:29:25.867Z,98905.16
2022-08-26T18:31:53.146Z,98912.38
2022-08-26T18:34:21.086Z,98906.50
2022-08-26T18:36:48.569Z,98913.63
2022-08-26T18:39:16.194Z,98915.91
2022-08-26T18:41:44.817Z,98914.69
2022-08-26T18:44:13.837Z,98912.47
2022-08-26T18:46:41.521Z,98922.41
2022-08-26T18:49:09.937Z,98916.28
2022-08-26T18:51:37.975Z,98917.28
2022-08-26T18:54:05.943Z,98915.56
2022-08-26T18:56:34.373Z,98908.88
2022-08-26T18:59:02.280Z,98917.97
2022-08-26T19:01:30.167Z,98920.50
2022-08-26T19:03:58.378Z,98921.31
2022-08-26T19:06:26.230Z,98924.09
2022-08-26T19:08:53.788Z,98923.41
2022-08-26T19:11:31.610Z,98930.59
2022-08-26T19:14:03.089Z,98936.34
2022-08-26T19:16:30.879Z,98936.78
2022-08-26T19:18:58.921Z,98938.25
2022-08-26T19:21:26.632Z,98943.03
2022-08-26T19:23:58.233Z,98943.34
2022-08-26T19:26:26.533Z,98945.25
2022-08-26T19:28:55.374Z,98942.78
2022-08-26T19:31:23.080Z,98938.34
2022-08-26T19:33:50.470Z,98942.13
2022-08-26T19:36:22.483Z,98951.16
2022-08-26T19:38:51.087Z,98940.09
2022-08-26T19:41:20.542Z,98950.53
2022-08-26T19:43:47.843Z,98957.37
2022-08-26T19:46:17.325Z,98959.53
2022-08-26T19:48:45.113Z,98955.44
2022-08-26T19:51:15.784Z,98954.16
2022-08-26T19:53:43.765Z,98954.75
2022-08-26T19:56:11.638Z,98954.50
2022-08-26T19:58:39.132Z,98953.28
2022-08-26T20:01:06.625Z,98957.78
2022-08-26T20:03:34.766Z,98959.38
2022-08-26T20:06:05.687Z,98958.81
2022-08-26T20:08:34.062Z,98959.94
2022-08-26T20:11:02.199Z,98960.25
2022-08-26T20:13:29.448Z,98958.59
2022-08-26T20:15:56.727Z,98958.91
2022-08-26T20:18:43.274Z,98956.63
2022-08-26T20:21:29.580Z,98964.69
2022-08-26T20:24:03.583Z,98967.13
2022-08-26T20:26:32.098Z,98975.94
2022-08-26T20:28:59.825Z,98974.88
2022-08-26T20:31:27.293Z,98973.25
2022-08-26T20:33:54.922Z,98972.47
2022-08-26T20:36:23.535Z,98974.63
2022-08-26T20:38:50.870Z,98971.00
2022-08-26T20:41:18.407Z,98978.13
2022-08-26T20:43:47.072Z,98989.19
2022-08-26T20:46:17.933Z,98984.97
2022-08-26T20:48:46.785Z,98984.63
2022-08-26T20:51:14.491Z,98984.22
2022-08-26T20:53:41.864Z,98981.13
2022-08-26T20:56:09.995Z,98987.56
2022-08-26T20:58:37.650Z,98991.97
2022-08-26T21:01:07.990Z,98990.28
2022-08-26T21:03:36.168Z,99003.66
2022-08-26T21:06:03.838Z,99000.41
2022-08-26T21:08:33.038Z,99000.63
2022-08-26T21:11:01.862Z,99000.97
2022-08-26T21:13:42.809Z,99010.16
2022-08-26T21:16:16.224Z,99009.72
2022-08-26T21:18:43.622Z,99006.56
2022-08-26T21:21:10.939Z,99003.44
2022-08-26T21:23:38.654Z,99004.81
2022-08-26T21:26:09.718Z,99007.12
2022-08-26T21:28:37.780Z,99009.84
2022-08-26T21:31:06.256Z,99003.06
2022-08-26T21:33:33.977Z,99005.13
2022-08-26T21:36:01.371Z,99010.56
2022-08-26T21:38:30.941Z,99014.38
2022-08-26T21:40:59.099Z,99013.88
2022-08-26T21:43:35.144Z,99007.25
2022-08-26T21:46:11.695Z,99005.34
2022-08-26T21:48:39.204Z,99006.91
2022-08-26T21:51:06.782Z,99000.94
2022-08-26T21:53:34.343Z,99004.56
2022-08-26T21:56:08.794Z,98997.19
2022-08-26T21:58:36.543Z,99000.09
2022-08-26T22:01:04.776Z,99000.84
2022-08-26T22:03:32.409Z,98995.81
2022-08-26T22:06:12.028Z,99000.00
2022-08-26T22:08:39.632Z,99001.00
2022-08-26T22:11:07.043Z,98999.50
2022-08-26T22:13:36.956Z,99000.94
2022-08-26T22:16:05.095Z,98995.16
2022-08-26T22:18:32.523Z,98995.63
2022-08-26T22:21:01.110Z,99001.06
2022-08-26T22:23:28.925Z,98995.50
2022-08-26T22:25:56.538Z,98995.41
2022-08-26T22:28:23.891Z,98993.72
2022-08-26T22:30:51.406Z,98994.50
2022-08-26T22:33:18.862Z,98990.59
2022-08-26T22:35:47.062Z,98988.78
2022-08-26T22:38:14.707Z,98990.41
2022-08-26T22:40:46.033Z,98988.06
2022-08-26T22:43:13.674Z,98986.56
2022-08-26T22:45:43.281Z,98988.31
2022-08-26T22:48:10.879Z,98985.91
2022-08-26T22:50:38.458Z,98979.56
2022-08-26T22:53:06.014Z,98979.09
2022-08-26T22:55:33.335Z,98975.03
2022-08-26T22:58:00.706Z,98976.50
2022-08-26T23:00:32.163Z,98970.34
2022-08-26T23:03:00.414Z,98970.91
2022-08-26T23:05:28.062Z,98968.78
2022-08-26T23:07:56.722Z,98965.22
2022-08-26T23:10:24.055Z,98974.66
2022-08-26T23:12:52.502Z,98973.09
2022-08-26T23:15:20.276Z,98963.75
2022-08-26T23:17:47.946Z,98971.91
2022-08-26T23:20:26.563Z,98973.47
2022-08-26T23:22:54.225Z,98969.56
2022-08-26T23:25:21.742Z,98967.22
2022-08-26T23:27:50.220Z,98971.28
2022-08-26T23:30:18.836Z,98961.41
2022-08-26T23:32:46.544Z,98954.38
2022-08-26T23:35:14.505Z,98959.66
2022-08-26T23:37:43.706Z,98952.34
2022-08-26T23:40:12.599Z,98955.00
2022-08-26T23:42:40.390Z,98950.81
2022-08-26T23:45:08.650Z,98947.72
2022-08-26T23:47:36.186Z,98944.47
2022-08-26T23:50:03.974Z,98947.97
2022-08-26T23:52:49.692Z,98948.81
2022-08-26T23:55:17.948Z,98956.22
2022-08-26T23:57:46.160Z,98952.28
